»·PEaware :: N791JR KPSP-KTNP

N791JR :: KPSP-KTNP

FLIGHT INFORMATION

Flight Status: Arrived
Operator: Privately registered:
United States
More flights under this callsign
Pilot: Erik B. (9150)
Aircraft: CESSNA 172 SKYHAWK
(C172)
More flights by this aircraft type
Origin: KPSP Palm Springs Intl
United States
Destination: KTNP Twentynine Palms
United States
More flights between these airports :: More routes between these airports
Route:
File this flight plan on PilotEdge
Remarks:
Altitude:
(Current/Filed)
7,500ft
Speed:
(Current/Filed)
110kts
Departed: 28-Apr-19 10:49 AM
Arrived: 28-Apr-19 11:18 AM
Distance/Time
Traveled:
34nm/0:29
Distance/Time
To Go:
Arrived

Flight Plot

Page will automatically refresh every two minutes.


Map Options




Map Legend


Flown Route
Filed Route
Departure Airport
Arrival Airport
Navaid (VOR, NDB)
Fix

Horizontal Profiles

Position Reports

Time Latitude Longitude Heading Altitude Ground
Speed
28-Apr-19 10:07 33.825947 -116.510327 178 422ft 0kts
28-Apr-19 10:08 33.825947 -116.510327 178 422ft 0kts
28-Apr-19 10:09 33.825947 -116.510327 178 422ft 0kts
28-Apr-19 10:10 33.825947 -116.510327 178 422ft 0kts
28-Apr-19 10:11 33.825947 -116.510327 178 422ft 0kts
28-Apr-19 10:12 33.825947 -116.510327 178 422ft 0kts
28-Apr-19 10:13 33.825947 -116.510327 178 422ft 0kts
28-Apr-19 10:14 33.825947 -116.510327 178 422ft 0kts
28-Apr-19 10:15 33.825947 -116.510327 178 422ft 0kts
28-Apr-19 10:16 33.825947 -116.510327 178 422ft 0kts
28-Apr-19 10:17 33.825947 -116.510327 178 422ft 0kts
28-Apr-19 10:18 33.825947 -116.510327 178 422ft 0kts
28-Apr-19 10:19 33.825947 -116.510327 178 422ft 0kts
28-Apr-19 10:20 33.825947 -116.510327 178 422ft 0kts
28-Apr-19 10:21 33.825947 -116.510327 178 422ft 0kts
28-Apr-19 10:22 33.825947 -116.510327 178 422ft 0kts
28-Apr-19 10:23 33.825947 -116.510327 178 422ft 0kts
28-Apr-19 10:23 33.825947 -116.510327 178 422ft 0kts
28-Apr-19 10:25 33.825947 -116.510327 178 422ft 0kts
28-Apr-19 10:26 33.825947 -116.510327 178 422ft 0kts
28-Apr-19 10:26 33.825947 -116.510327 178 422ft 0kts
28-Apr-19 10:27 33.825947 -116.510327 178 422ft 0kts
28-Apr-19 10:29 33.825947 -116.510327 178 422ft 0kts
28-Apr-19 10:29 33.825947 -116.510327 178 422ft 0kts
28-Apr-19 10:30 33.825947 -116.510327 178 422ft 0kts
28-Apr-19 10:31 33.825947 -116.510327 178 422ft 0kts
28-Apr-19 10:32 33.825947 -116.510327 178 422ft 0kts
28-Apr-19 10:33 33.825947 -116.510327 178 422ft 0kts
28-Apr-19 10:34 33.825947 -116.510327 178 422ft 0kts
28-Apr-19 10:35 33.825947 -116.510327 178 422ft 0kts
28-Apr-19 10:36 33.825947 -116.510327 178 422ft 0kts
28-Apr-19 10:37 33.825941 -116.510327 177 422ft 0kts
28-Apr-19 10:38 33.825941 -116.510327 177 422ft 0kts
28-Apr-19 10:39 33.825941 -116.510327 177 422ft 0kts
28-Apr-19 10:40 33.825882 -116.510303 138 421ft 2kts
28-Apr-19 10:41 33.825678 -116.508356 85 418ft 9kts
28-Apr-19 10:42 33.825375 -116.505975 81 414ft 6kts
28-Apr-19 10:43 33.822991 -116.503759 142 407ft 16kts
28-Apr-19 10:44 33.819361 -116.500535 142 398ft 14kts
28-Apr-19 10:45 33.818136 -116.499185 11 395ft 0kts
28-Apr-19 10:46 33.818136 -116.499185 11 395ft 0kts
28-Apr-19 10:47 33.819311 -116.498441 322 394ft 20kts
28-Apr-19 10:48 33.835247 -116.511922 353 864ft 72kts
28-Apr-19 10:49 33.831836 -116.496913 139 1414ft 69kts
28-Apr-19 10:50 33.818912 -116.479433 133 1972ft 72kts
28-Apr-19 10:51 33.805477 -116.461170 132 2494ft 75kts
28-Apr-19 10:52 33.791909 -116.441758 130 2954ft 83kts
28-Apr-19 10:53 33.777951 -116.419513 132 3494ft 84kts
28-Apr-19 10:54 33.762896 -116.396834 131 3977ft 91kts
28-Apr-19 10:55 33.752009 -116.370317 67 4487ft 94kts
28-Apr-19 10:56 33.774013 -116.361807 358 4922ft 86kts
28-Apr-19 10:57 33.796261 -116.353519 23 5402ft 82kts
28-Apr-19 10:58 33.815044 -116.340816 22 5822ft 74kts
28-Apr-19 10:59 33.834232 -116.327869 23 6083ft 86kts
28-Apr-19 11:00 33.857199 -116.312183 25 6321ft 104kts
28-Apr-19 11:01 33.882375 -116.294656 24 6683ft 100kts
28-Apr-19 11:02 33.904830 -116.278907 22 7138ft 84kts
28-Apr-19 11:03 33.925138 -116.264696 21 7433ft 83kts
28-Apr-19 11:04 33.947893 -116.248771 24 7496ft 106kts
28-Apr-19 11:05 33.974136 -116.228848 38 7394ft 118kts
28-Apr-19 11:06 33.994119 -116.198203 52 7409ft 115kts
28-Apr-19 11:07 34.011644 -116.166164 53 7427ft 114kts
28-Apr-19 11:08 34.028985 -116.134017 53 7445ft 114kts
28-Apr-19 11:09 34.046055 -116.102087 55 7273ft 113kts
28-Apr-19 11:10 34.060856 -116.071784 62 6838ft 99kts
28-Apr-19 11:11 34.075660 -116.038875 63 6157ft 112kts
28-Apr-19 11:12 34.094417 -116.009068 55 5618ft 110kts
28-Apr-19 11:13 34.109471 -115.977753 87 5036ft 94kts
28-Apr-19 11:14 34.124094 -115.949089 86 3013ft 94kts
28-Apr-19 11:15 34.123766 -115.920567 78 2463ft 86kts
28-Apr-19 11:16 34.134504 -115.925722 266 2079ft 66kts
28-Apr-19 11:17 34.134426 -115.941406 285 1812ft 7kts
28-Apr-19 11:18 34.136077 -115.942140 270 1814ft 1kts
28-Apr-19 11:19 34.136117 -115.942982 181 1817ft 0kts

Navigation Log

Ident Type
Flight plan parsing failed, navigation log unavailable